INFORMAÇÕES METEOROLÓGICAS
METAR FOR SBCJ
ADDS - METARS form results

(2149 UTC 17 February 2019)
Data provider http://aviationweather.gov/metar/data/
 
METAR text: SBCJ 172130Z 05005KT CAVOK 22/20 Q1014
Conditions at: SBCJ (CARAJAS/MARABA , BR) observed 2130 UTC 17 February 2019
Temperature: 22.0°C (72°F)
Dewpoint: 20.0°C (68°F) [RH = 88%]
Pressure (altimeter): 29.94 inches Hg (1014.0 mb)
Winds: from the NE (50 degrees) at 6 MPH (5 knots; 2.6 m/s)
Visibility: 6 or more miles (10+ km)
Ceiling: ceiling and visibility are OK
Clouds: unknown
Weather: no significant weather observed at this time

METAR text: SBCJ 172100Z 00000KT CAVOK 23/20 Q1013
Conditions at: SBCJ (CARAJAS/MARABA , BR) observed 2100 UTC 17 February 2019
Temperature: 23.0°C (73°F)
Dewpoint: 20.0°C (68°F) [RH = 83%]
Pressure (altimeter): 29.91 inches Hg (1013.0 mb)
Winds: calm
Visibility: 6 or more miles (10+ km)
Ceiling: ceiling and visibility are OK
Clouds: unknown
Weather: no significant weather observed at this time

Forecast for: SBCJ (CARAJAS/MARABA , BR)
Text: TAF SBCJ 171600Z 1718/1806 06005KT 9999 SCT025 TX27/1719Z TN20/1805Z
Forecast period: 1800 to 2100 UTC 17 February 2019
Forecast type: FROM: standard forecast or significant change
Winds: from the ENE (60 degrees) at 6 MPH (5 knots; 2.6 m/s)
Visibility: 6 or more miles 10+ km)
Ceiling: at least 12,000 feet AGL
Clouds: scattered clouds at 2500 feet AGL
Weather: no significant weather forecast for this period
Text: BECMG 1721/1723 00000KT CAVOK RMK PFN
Forecast period: 2100 UTC 17 February 2019 to 0600 UTC 18 February 2019
Forecast type: BECOMING: Conditions expected to become as follows by 2300 UTC 17 February 2019
Winds: calm
Visibility: 6 or more miles 10+ km)
Ceiling: unknown
Clouds: missing
Weather: NSW  (no significant weather)

 MAPA DO AEROPORTO

 INFORMAÇÕES DA PISTA
Pista 10 Tamanho da pista 6562 ft Largura da pista 148 ft
Elevação da pista 0 ft Ranhura da pista 0 ft Proa da pista 0
Pista 28 Tamanho da pista 6562 ft Largura da pista 148 ft
Elevação da pista 0 ft Ranhura da pista 0 ft Proa da pista 0

 FREQUÊNCIAS DO AEROPORTO
Tipo AFIS Nome RDO Frequência 131.7 MHZ

 AUXÍLIOS DE NAVEGAÇÃO PRÓXIMOS AO AEROPORTO
Tipo VOR-DME Nome Carajas Frequência 112400 KHZ
Tipo NDB Nome Carajas Frequência 170 KHZ



Powered by Mercosul Lnhas Aereas